sensor_id;sensor_type;location;lat;lon;timestamp;temperature;humidity
64705;DHT22;51131;52.298;13.686;2023-08-20T00:01:57;21.80;87.40
64705;DHT22;51131;52.298;13.686;2023-08-20T00:04:25;21.60;87.20
64705;DHT22;51131;52.298;13.686;2023-08-20T00:06:52;21.80;87.40
64705;DHT22;51131;52.298;13.686;2023-08-20T00:09:19;21.80;87.30
64705;DHT22;51131;52.298;13.686;2023-08-20T00:11:45;21.80;87.30
64705;DHT22;51131;52.298;13.686;2023-08-20T00:14:16;22.00;87.60
64705;DHT22;51131;52.298;13.686;2023-08-20T00:16:43;21.80;87.30
64705;DHT22;51131;52.298;13.686;2023-08-20T00:19:10;21.80;87.30
64705;DHT22;51131;52.298;13.686;2023-08-20T00:21:41;21.80;87.30
64705;DHT22;51131;52.298;13.686;2023-08-20T00:24:08;21.80;87.30
64705;DHT22;51131;52.298;13.686;2023-08-20T00:26:35;21.80;87.40
64705;DHT22;51131;52.298;13.686;2023-08-20T00:29:02;21.80;87.30
64705;DHT22;51131;52.298;13.686;2023-08-20T00:31:29;21.80;87.40
64705;DHT22;51131;52.298;13.686;2023-08-20T00:33:56;21.80;87.40
64705;DHT22;51131;52.298;13.686;2023-08-20T00:36:33;21.80;87.40
64705;DHT22;51131;52.298;13.686;2023-08-20T00:38:59;21.90;87.40
64705;DHT22;51131;52.298;13.686;2023-08-20T00:41:26;22.20;87.80
64705;DHT22;51131;52.298;13.686;2023-08-20T00:43:52;21.70;87.20
64705;DHT22;51131;52.298;13.686;2023-08-20T00:46:19;22.10;87.60
64705;DHT22;51131;52.298;13.686;2023-08-20T00:48:46;21.90;87.40
64705;DHT22;51131;52.298;13.686;2023-08-20T00:51:12;21.90;87.30
64705;DHT22;51131;52.298;13.686;2023-08-20T00:53:39;21.80;87.20
64705;DHT22;51131;52.298;13.686;2023-08-20T00:56:06;21.70;87.20
64705;DHT22;51131;52.298;13.686;2023-08-20T00:58:33;21.80;87.10
64705;DHT22;51131;52.298;13.686;2023-08-20T01:01:00;22.00;87.30
64705;DHT22;51131;52.298;13.686;2023-08-20T01:03:27;22.60;88.00
64705;DHT22;51131;52.298;13.686;2023-08-20T01:05:58;22.20;87.70
64705;DHT22;51131;52.298;13.686;2023-08-20T01:08:37;22.40;87.80
64705;DHT22;51131;52.298;13.686;2023-08-20T01:11:49;21.80;87.30
64705;DHT22;51131;52.298;13.686;2023-08-20T01:13:55;21.50;87.00
64705;DHT22;51131;52.298;13.686;2023-08-20T01:16:22;21.80;87.40
64705;DHT22;51131;52.298;13.686;2023-08-20T01:18:48;21.70;87.20
64705;DHT22;51131;52.298;13.686;2023-08-20T01:21:20;21.70;87.10
64705;DHT22;51131;52.298;13.686;2023-08-20T01:26:32;21.70;87.20
64705;DHT22;51131;52.298;13.686;2023-08-20T01:29:02;21.60;87.20
64705;DHT22;51131;52.298;13.686;2023-08-20T01:31:31;21.70;87.30
64705;DHT22;51131;52.298;13.686;2023-08-20T01:33:59;21.80;87.40
64705;DHT22;51131;52.298;13.686;2023-08-20T01:36:26;21.70;87.30
64705;DHT22;51131;52.298;13.686;2023-08-20T01:38:53;21.70;87.20
64705;DHT22;51131;52.298;13.686;2023-08-20T01:41:20;21.90;87.40
64705;DHT22;51131;52.298;13.686;2023-08-20T01:43:47;21.80;87.30
64705;DHT22;51131;52.298;13.686;2023-08-20T01:46:13;21.90;87.50
64705;DHT22;51131;52.298;13.686;2023-08-20T01:48:40;22.10;87.50
64705;DHT22;51131;52.298;13.686;2023-08-20T01:51:07;22.30;87.80
64705;DHT22;51131;52.298;13.686;2023-08-20T01:53:35;21.70;87.20
64705;DHT22;51131;52.298;13.686;2023-08-20T01:56:01;21.90;87.30
64705;DHT22;51131;52.298;13.686;2023-08-20T01:58:28;21.70;87.30
64705;DHT22;51131;52.298;13.686;2023-08-20T02:00:54;22.30;87.70
64705;DHT22;51131;52.298;13.686;2023-08-20T02:03:21;22.40;87.80
64705;DHT22;51131;52.298;13.686;2023-08-20T02:05:48;21.70;87.20
64705;DHT22;51131;52.298;13.686;2023-08-20T02:08:15;22.00;87.40
64705;DHT22;51131;52.298;13.686;2023-08-20T02:10:41;21.80;87.20
64705;DHT22;51131;52.298;13.686;2023-08-20T02:13:15;22.20;87.60
64705;DHT22;51131;52.298;13.686;2023-08-20T02:15:42;22.00;87.50
64705;DHT22;51131;52.298;13.686;2023-08-20T02:18:09;22.30;87.70
64705;DHT22;51131;52.298;13.686;2023-08-20T02:20:36;22.50;87.80
64705;DHT22;51131;52.298;13.686;2023-08-20T02:23:02;22.30;88.40
64705;DHT22;51131;52.298;13.686;2023-08-20T02:25:29;21.90;89.50
64705;DHT22;51131;52.298;13.686;2023-08-20T02:27:56;22.00;89.50
64705;DHT22;51131;52.298;13.686;2023-08-20T02:30:22;22.10;89.00
64705;DHT22;51131;52.298;13.686;2023-08-20T02:32:49;22.10;88.70
64705;DHT22;51131;52.298;13.686;2023-08-20T02:35:16;22.20;89.10
64705;DHT22;51131;52.298;13.686;2023-08-20T02:37:43;22.60;89.30
64705;DHT22;51131;52.298;13.686;2023-08-20T02:40:10;22.20;88.50
64705;DHT22;51131;52.298;13.686;2023-08-20T02:42:38;22.20;88.30
64705;DHT22;51131;52.298;13.686;2023-08-20T02:45:05;22.30;88.80
64705;DHT22;51131;52.298;13.686;2023-08-20T02:47:31;22.30;88.30
64705;DHT22;51131;52.298;13.686;2023-08-20T02:49:58;22.40;88.20
64705;DHT22;51131;52.298;13.686;2023-08-20T02:52:25;22.50;88.30
64705;DHT22;51131;52.298;13.686;2023-08-20T02:54:52;22.40;87.70
64705;DHT22;51131;52.298;13.686;2023-08-20T02:57:18;22.40;87.80
64705;DHT22;51131;52.298;13.686;2023-08-20T02:59:45;22.50;88.00
64705;DHT22;51131;52.298;13.686;2023-08-20T03:02:11;22.60;88.00
64705;DHT22;51131;52.298;13.686;2023-08-20T03:04:38;22.60;87.90
64705;DHT22;51131;52.298;13.686;2023-08-20T03:07:05;22.90;88.10
64705;DHT22;51131;52.298;13.686;2023-08-20T03:09:31;22.40;88.30
64705;DHT22;51131;52.298;13.686;2023-08-20T03:11:58;22.40;87.70
64705;DHT22;51131;52.298;13.686;2023-08-20T03:14:25;22.60;88.20
64705;DHT22;51131;52.298;13.686;2023-08-20T03:16:54;22.50;88.00
64705;DHT22;51131;52.298;13.686;2023-08-20T03:19:21;22.50;88.00
64705;DHT22;51131;52.298;13.686;2023-08-20T03:21:47;23.10;88.50
64705;DHT22;51131;52.298;13.686;2023-08-20T03:24:14;22.40;87.50
64705;DHT22;51131;52.298;13.686;2023-08-20T03:26:40;22.40;87.80
64705;DHT22;51131;52.298;13.686;2023-08-20T03:29:07;22.50;88.00
64705;DHT22;51131;52.298;13.686;2023-08-20T03:31:34;22.40;88.00
64705;DHT22;51131;52.298;13.686;2023-08-20T03:34:01;22.70;88.20
64705;DHT22;51131;52.298;13.686;2023-08-20T03:36:27;22.80;88.00
64705;DHT22;51131;52.298;13.686;2023-08-20T03:38:54;22.60;87.80
64705;DHT22;51131;52.298;13.686;2023-08-20T03:41:20;22.50;87.70
64705;DHT22;51131;52.298;13.686;2023-08-20T03:43:47;22.60;88.40
64705;DHT22;51131;52.298;13.686;2023-08-20T03:46:14;22.60;87.90
64705;DHT22;51131;52.298;13.686;2023-08-20T03:48:40;22.40;87.80
64705;DHT22;51131;52.298;13.686;2023-08-20T03:51:07;22.40;87.40
64705;DHT22;51131;52.298;13.686;2023-08-20T03:53:34;22.50;87.90
64705;DHT22;51131;52.298;13.686;2023-08-20T03:56:01;22.40;87.80
64705;DHT22;51131;52.298;13.686;2023-08-20T03:58:27;22.50;87.90
64705;DHT22;51131;52.298;13.686;2023-08-20T04:00:54;22.40;87.90
64705;DHT22;51131;52.298;13.686;2023-08-20T04:03:22;22.90;88.60
64705;DHT22;51131;52.298;13.686;2023-08-20T04:05:49;22.40;87.90
64705;DHT22;51131;52.298;13.686;2023-08-20T04:08:15;22.40;87.90
64705;DHT22;51131;52.298;13.686;2023-08-20T04:10:43;22.40;87.90
64705;DHT22;51131;52.298;13.686;2023-08-20T04:13:11;22.40;87.80
64705;DHT22;51131;52.298;13.686;2023-08-20T04:15:38;22.40;87.80
64705;DHT22;51131;52.298;13.686;2023-08-20T04:18:05;22.40;87.80
64705;DHT22;51131;52.298;13.686;2023-08-20T04:20:32;22.40;87.40
64705;DHT22;51131;52.298;13.686;2023-08-20T04:22:58;22.40;88.00
64705;DHT22;51131;52.298;13.686;2023-08-20T04:25:25;22.50;87.60
64705;DHT22;51131;52.298;13.686;2023-08-20T04:27:52;22.40;87.40
64705;DHT22;51131;52.298;13.686;2023-08-20T04:30:18;22.50;87.40
64705;DHT22;51131;52.298;13.686;2023-08-20T04:32:45;22.70;87.70
64705;DHT22;51131;52.298;13.686;2023-08-20T04:35:13;22.20;87.40
64705;DHT22;51131;52.298;13.686;2023-08-20T04:37:40;22.30;87.40
64705;DHT22;51131;52.298;13.686;2023-08-20T04:40:07;22.30;87.30
64705;DHT22;51131;52.298;13.686;2023-08-20T04:42:34;22.30;87.80
64705;DHT22;51131;52.298;13.686;2023-08-20T04:45:01;22.30;87.50
64705;DHT22;51131;52.298;13.686;2023-08-20T04:47:27;22.30;87.40
64705;DHT22;51131;52.298;13.686;2023-08-20T04:49:54;22.50;87.70
64705;DHT22;51131;52.298;13.686;2023-08-20T04:52:21;22.70;87.90
64705;DHT22;51131;52.298;13.686;2023-08-20T04:54:48;22.30;87.20
64705;DHT22;51131;52.298;13.686;2023-08-20T04:57:14;22.60;87.80
64705;DHT22;51131;52.298;13.686;2023-08-20T04:59:42;22.40;87.70
64705;DHT22;51131;52.298;13.686;2023-08-20T05:02:12;22.50;87.90
64705;DHT22;51131;52.298;13.686;2023-08-20T05:04:39;22.20;87.40
64705;DHT22;51131;52.298;13.686;2023-08-20T05:07:06;22.30;87.50
64705;DHT22;51131;52.298;13.686;2023-08-20T05:09:33;22.30;87.30
64705;DHT22;51131;52.298;13.686;2023-08-20T05:12:00;22.30;87.70
64705;DHT22;51131;52.298;13.686;2023-08-20T05:14:26;22.40;87.50
64705;DHT22;51131;52.298;13.686;2023-08-20T05:16:53;22.30;87.50
64705;DHT22;51131;52.298;13.686;2023-08-20T05:19:20;22.30;87.60
64705;DHT22;51131;52.298;13.686;2023-08-20T05:21:46;22.30;88.00
64705;DHT22;51131;52.298;13.686;2023-08-20T05:24:13;22.40;87.80
64705;DHT22;51131;52.298;13.686;2023-08-20T05:26:40;22.30;88.50
64705;DHT22;51131;52.298;13.686;2023-08-20T05:29:06;22.30;88.10
64705;DHT22;51131;52.298;13.686;2023-08-20T05:31:33;22.60;88.50
64705;DHT22;51131;52.298;13.686;2023-08-20T05:34:00;22.30;88.10
64705;DHT22;51131;52.298;13.686;2023-08-20T05:36:26;22.30;87.80
64705;DHT22;51131;52.298;13.686;2023-08-20T05:38:53;22.60;88.30
64705;DHT22;51131;52.298;13.686;2023-08-20T05:41:20;22.30;87.80
64705;DHT22;51131;52.298;13.686;2023-08-20T05:43:46;22.80;88.20
64705;DHT22;51131;52.298;13.686;2023-08-20T05:46:13;22.30;88.00
64705;DHT22;51131;52.298;13.686;2023-08-20T05:48:40;22.30;87.80
64705;DHT22;51131;52.298;13.686;2023-08-20T05:51:06;22.30;87.60
64705;DHT22;51131;52.298;13.686;2023-08-20T05:53:33;22.40;87.60
64705;DHT22;51131;52.298;13.686;2023-08-20T05:55:59;22.30;87.50
64705;DHT22;51131;52.298;13.686;2023-08-20T05:58:26;22.40;87.70
64705;DHT22;51131;52.298;13.686;2023-08-20T06:00:53;22.30;87.40
64705;DHT22;51131;52.298;13.686;2023-08-20T06:03:19;22.20;87.20
64705;DHT22;51131;52.298;13.686;2023-08-20T06:05:46;22.30;87.30
64705;DHT22;51131;52.298;13.686;2023-08-20T06:08:13;22.60;87.50
64705;DHT22;51131;52.298;13.686;2023-08-20T06:10:40;22.40;87.40
64705;DHT22;51131;52.298;13.686;2023-08-20T06:13:06;22.30;87.10
64705;DHT22;51131;52.298;13.686;2023-08-20T06:15:33;22.30;87.10
64705;DHT22;51131;52.298;13.686;2023-08-20T06:18:00;22.40;87.30
64705;DHT22;51131;52.298;13.686;2023-08-20T06:20:26;22.30;87.20
64705;DHT22;51131;52.298;13.686;2023-08-20T06:22:53;22.60;87.50
64705;DHT22;51131;52.298;13.686;2023-08-20T06:25:20;22.30;87.40
64705;DHT22;51131;52.298;13.686;2023-08-20T06:27:46;22.20;87.40
64705;DHT22;51131;52.298;13.686;2023-08-20T06:30:13;22.30;87.40
64705;DHT22;51131;52.298;13.686;2023-08-20T06:32:40;22.20;87.30
64705;DHT22;51131;52.298;13.686;2023-08-20T06:35:07;22.20;87.50
64705;DHT22;51131;52.298;13.686;2023-08-20T06:37:35;22.20;87.40
64705;DHT22;51131;52.298;13.686;2023-08-20T06:40:02;22.20;87.90
64705;DHT22;51131;52.298;13.686;2023-08-20T06:42:29;22.20;87.70
64705;DHT22;51131;52.298;13.686;2023-08-20T06:44:56;22.10;87.60
64705;DHT22;51131;52.298;13.686;2023-08-20T06:47:22;22.20;87.50
64705;DHT22;51131;52.298;13.686;2023-08-20T06:49:49;22.20;87.50
64705;DHT22;51131;52.298;13.686;2023-08-20T06:52:16;22.20;87.40
64705;DHT22;51131;52.298;13.686;2023-08-20T06:54:44;22.20;87.30
64705;DHT22;51131;52.298;13.686;2023-08-20T06:57:10;22.20;87.40
64705;DHT22;51131;52.298;13.686;2023-08-20T06:59:37;22.40;87.40
64705;DHT22;51131;52.298;13.686;2023-08-20T07:02:04;22.30;87.40
64705;DHT22;51131;52.298;13.686;2023-08-20T07:04:31;22.30;87.40
64705;DHT22;51131;52.298;13.686;2023-08-20T07:06:59;22.30;87.60
64705;DHT22;51131;52.298;13.686;2023-08-20T07:09:26;22.20;87.40
64705;DHT22;51131;52.298;13.686;2023-08-20T07:11:53;22.20;87.30
64705;DHT22;51131;52.298;13.686;2023-08-20T07:14:19;22.30;87.40
64705;DHT22;51131;52.298;13.686;2023-08-20T07:16:46;22.40;87.60
64705;DHT22;51131;52.298;13.686;2023-08-20T07:19:12;22.40;87.70
64705;DHT22;51131;52.298;13.686;2023-08-20T07:21:39;22.30;87.30
64705;DHT22;51131;52.298;13.686;2023-08-20T07:24:06;22.40;87.40
64705;DHT22;51131;52.298;13.686;2023-08-20T07:26:33;22.20;87.50
64705;DHT22;51131;52.298;13.686;2023-08-20T07:28:59;22.30;87.40
64705;DHT22;51131;52.298;13.686;2023-08-20T07:31:27;22.20;87.30
64705;DHT22;51131;52.298;13.686;2023-08-20T07:33:55;22.20;87.30
64705;DHT22;51131;52.298;13.686;2023-08-20T07:36:23;22.30;87.30
64705;DHT22;51131;52.298;13.686;2023-08-20T07:38:50;22.20;87.20
64705;DHT22;51131;52.298;13.686;2023-08-20T07:41:17;22.20;87.10
64705;DHT22;51131;52.298;13.686;2023-08-20T07:43:46;22.20;87.20
64705;DHT22;51131;52.298;13.686;2023-08-20T07:46:13;22.20;87.30
64705;DHT22;51131;52.298;13.686;2023-08-20T07:48:40;22.20;87.30
64705;DHT22;51131;52.298;13.686;2023-08-20T07:51:07;22.20;87.40
64705;DHT22;51131;52.298;13.686;2023-08-20T07:53:33;22.30;87.50
64705;DHT22;51131;52.298;13.686;2023-08-20T07:56:00;22.30;87.30
64705;DHT22;51131;52.298;13.686;2023-08-20T07:58:27;22.20;87.50
64705;DHT22;51131;52.298;13.686;2023-08-20T08:00:56;22.30;87.70
64705;DHT22;51131;52.298;13.686;2023-08-20T08:03:26;22.20;87.60
64705;DHT22;51131;52.298;13.686;2023-08-20T08:05:53;22.20;87.50
64705;DHT22;51131;52.298;13.686;2023-08-20T08:08:21;22.20;87.80
64705;DHT22;51131;52.298;13.686;2023-08-20T08:10:48;22.20;87.70
64705;DHT22;51131;52.298;13.686;2023-08-20T08:13:16;22.20;87.60
64705;DHT22;51131;52.298;13.686;2023-08-20T08:15:42;22.20;87.80
64705;DHT22;51131;52.298;13.686;2023-08-20T08:18:09;22.20;87.60
64705;DHT22;51131;52.298;13.686;2023-08-20T08:20:36;22.20;87.70
64705;DHT22;51131;52.298;13.686;2023-08-20T08:23:03;22.20;87.50
64705;DHT22;51131;52.298;13.686;2023-08-20T08:25:29;22.20;87.70
64705;DHT22;51131;52.298;13.686;2023-08-20T08:27:56;22.30;87.70
64705;DHT22;51131;52.298;13.686;2023-08-20T08:30:26;22.20;87.60
64705;DHT22;51131;52.298;13.686;2023-08-20T08:32:53;22.20;87.60
64705;DHT22;51131;52.298;13.686;2023-08-20T08:35:20;22.20;87.60
64705;DHT22;51131;52.298;13.686;2023-08-20T08:37:47;22.20;87.60
64705;DHT22;51131;52.298;13.686;2023-08-20T08:40:14;22.10;87.50
64705;DHT22;51131;52.298;13.686;2023-08-20T08:42:41;22.20;87.70
64705;DHT22;51131;52.298;13.686;2023-08-20T08:45:08;22.10;87.50
64705;DHT22;51131;52.298;13.686;2023-08-20T08:47:35;22.10;87.50
64705;DHT22;51131;52.298;13.686;2023-08-20T08:50:03;22.30;87.60
64705;DHT22;51131;52.298;13.686;2023-08-20T08:52:30;22.20;87.50
64705;DHT22;51131;52.298;13.686;2023-08-20T08:54:57;22.30;87.80
64705;DHT22;51131;52.298;13.686;2023-08-20T08:57:24;22.20;87.80
64705;DHT22;51131;52.298;13.686;2023-08-20T08:59:51;22.20;87.80
64705;DHT22;51131;52.298;13.686;2023-08-20T09:02:18;22.20;87.70
64705;DHT22;51131;52.298;13.686;2023-08-20T09:04:45;22.20;87.70
64705;DHT22;51131;52.298;13.686;2023-08-20T09:07:12;22.20;87.70
64705;DHT22;51131;52.298;13.686;2023-08-20T09:09:43;22.20;87.70
64705;DHT22;51131;52.298;13.686;2023-08-20T09:12:13;22.10;87.60
64705;DHT22;51131;52.298;13.686;2023-08-20T09:14:43;22.20;87.80
64705;DHT22;51131;52.298;13.686;2023-08-20T09:17:11;22.20;87.70
64705;DHT22;51131;52.298;13.686;2023-08-20T09:19:38;22.10;87.50
64705;DHT22;51131;52.298;13.686;2023-08-20T09:22:04;22.20;87.70
64705;DHT22;51131;52.298;13.686;2023-08-20T09:24:32;22.10;87.60
64705;DHT22;51131;52.298;13.686;2023-08-20T09:27:02;22.10;87.60
64705;DHT22;51131;52.298;13.686;2023-08-20T09:29:31;22.20;87.70
64705;DHT22;51131;52.298;13.686;2023-08-20T09:32:01;22.20;87.80
64705;DHT22;51131;52.298;13.686;2023-08-20T09:34:35;22.20;87.90
64705;DHT22;51131;52.298;13.686;2023-08-20T09:37:02;22.20;87.90
64705;DHT22;51131;52.298;13.686;2023-08-20T09:39:29;22.10;87.70
64705;DHT22;51131;52.298;13.686;2023-08-20T09:41:56;22.20;87.80
64705;DHT22;51131;52.298;13.686;2023-08-20T09:44:23;22.10;87.80
64705;DHT22;51131;52.298;13.686;2023-08-20T09:46:51;22.10;88.00
64705;DHT22;51131;52.298;13.686;2023-08-20T09:49:18;22.00;87.90
64705;DHT22;51131;52.298;13.686;2023-08-20T09:51:46;22.10;87.90
64705;DHT22;51131;52.298;13.686;2023-08-20T09:56:54;22.10;88.00
64705;DHT22;51131;52.298;13.686;2023-08-20T09:59:21;22.20;87.60
64705;DHT22;51131;52.298;13.686;2023-08-20T10:01:48;22.10;87.80
64705;DHT22;51131;52.298;13.686;2023-08-20T10:04:15;22.10;87.90
64705;DHT22;51131;52.298;13.686;2023-08-20T10:06:43;22.10;87.80
64705;DHT22;51131;52.298;13.686;2023-08-20T10:09:10;22.10;88.00
64705;DHT22;51131;52.298;13.686;2023-08-20T10:11:36;22.20;88.00
64705;DHT22;51131;52.298;13.686;2023-08-20T10:14:04;22.00;87.80
64705;DHT22;51131;52.298;13.686;2023-08-20T10:16:32;22.10;87.70
64705;DHT22;51131;52.298;13.686;2023-08-20T10:19:03;22.10;87.80
64705;DHT22;51131;52.298;13.686;2023-08-20T10:21:30;22.10;88.10
64705;DHT22;51131;52.298;13.686;2023-08-20T10:23:56;22.10;87.80
64705;DHT22;51131;52.298;13.686;2023-08-20T10:26:23;22.20;88.00
64705;DHT22;51131;52.298;13.686;2023-08-20T10:28:51;22.10;87.90
64705;DHT22;51131;52.298;13.686;2023-08-20T10:31:17;22.20;87.90
64705;DHT22;51131;52.298;13.686;2023-08-20T10:36:17;22.10;87.80
64705;DHT22;51131;52.298;13.686;2023-08-20T10:38:45;22.10;87.80
64705;DHT22;51131;52.298;13.686;2023-08-20T10:41:12;22.30;88.20
64705;DHT22;51131;52.298;13.686;2023-08-20T10:43:39;22.10;88.00
64705;DHT22;51131;52.298;13.686;2023-08-20T10:46:19;22.10;87.80
64705;DHT22;51131;52.298;13.686;2023-08-20T10:48:48;22.10;87.90
64705;DHT22;51131;52.298;13.686;2023-08-20T10:56:37;22.10;87.60
64705;DHT22;51131;52.298;13.686;2023-08-20T10:59:08;22.10;87.80
64705;DHT22;51131;52.298;13.686;2023-08-20T11:01:35;22.10;87.80
64705;DHT22;51131;52.298;13.686;2023-08-20T11:04:02;22.20;87.80
64705;DHT22;51131;52.298;13.686;2023-08-20T11:06:32;22.10;87.70
64705;DHT22;51131;52.298;13.686;2023-08-20T11:09:00;22.20;87.80
64705;DHT22;51131;52.298;13.686;2023-08-20T11:11:27;22.10;87.70
64705;DHT22;51131;52.298;13.686;2023-08-20T11:13:54;22.10;88.30
64705;DHT22;51131;52.298;13.686;2023-08-20T11:16:21;22.00;87.60
64705;DHT22;51131;52.298;13.686;2023-08-20T11:18:47;22.10;87.80
64705;DHT22;51131;52.298;13.686;2023-08-20T11:21:14;22.10;87.70
64705;DHT22;51131;52.298;13.686;2023-08-20T11:23:40;22.20;87.80
64705;DHT22;51131;52.298;13.686;2023-08-20T11:26:09;22.10;87.70
64705;DHT22;51131;52.298;13.686;2023-08-20T11:28:35;22.10;87.70
64705;DHT22;51131;52.298;13.686;2023-08-20T11:31:02;22.20;87.80
64705;DHT22;51131;52.298;13.686;2023-08-20T11:33:29;22.10;87.80
64705;DHT22;51131;52.298;13.686;2023-08-20T11:35:56;22.10;87.70
64705;DHT22;51131;52.298;13.686;2023-08-20T11:38:23;22.10;87.60
64705;DHT22;51131;52.298;13.686;2023-08-20T11:40:50;22.20;87.80
64705;DHT22;51131;52.298;13.686;2023-08-20T11:43:18;22.10;88.40
64705;DHT22;51131;52.298;13.686;2023-08-20T11:45:45;22.10;87.60
64705;DHT22;51131;52.298;13.686;2023-08-20T11:48:12;22.10;87.80
64705;DHT22;51131;52.298;13.686;2023-08-20T11:50:39;22.10;87.70
64705;DHT22;51131;52.298;13.686;2023-08-20T11:53:08;22.00;87.60
64705;DHT22;51131;52.298;13.686;2023-08-20T11:55:35;22.20;87.80
64705;DHT22;51131;52.298;13.686;2023-08-20T11:58:01;22.10;87.70
64705;DHT22;51131;52.298;13.686;2023-08-20T12:00:30;22.10;87.60
64705;DHT22;51131;52.298;13.686;2023-08-20T12:02:57;22.10;87.80
64705;DHT22;51131;52.298;13.686;2023-08-20T12:05:27;22.10;87.70
64705;DHT22;51131;52.298;13.686;2023-08-20T12:07:58;22.10;87.60
64705;DHT22;51131;52.298;13.686;2023-08-20T12:10:29;22.10;87.60
64705;DHT22;51131;52.298;13.686;2023-08-20T12:12:56;22.00;87.60
64705;DHT22;51131;52.298;13.686;2023-08-20T12:15:23;22.20;87.70
64705;DHT22;51131;52.298;13.686;2023-08-20T12:17:57;22.10;87.60
64705;DHT22;51131;52.298;13.686;2023-08-20T12:20:26;22.00;87.50
64705;DHT22;51131;52.298;13.686;2023-08-20T12:22:53;22.00;87.60
64705;DHT22;51131;52.298;13.686;2023-08-20T12:25:20;22.10;87.70
64705;DHT22;51131;52.298;13.686;2023-08-20T12:27:46;22.10;87.70
64705;DHT22;51131;52.298;13.686;2023-08-20T12:30:13;22.00;87.50
64705;DHT22;51131;52.298;13.686;2023-08-20T12:32:40;22.10;87.50
64705;DHT22;51131;52.298;13.686;2023-08-20T12:35:06;22.10;87.50
64705;DHT22;51131;52.298;13.686;2023-08-20T12:37:33;22.10;87.50
64705;DHT22;51131;52.298;13.686;2023-08-20T12:40:01;22.10;87.40
64705;DHT22;51131;52.298;13.686;2023-08-20T12:42:27;22.10;87.40
64705;DHT22;51131;52.298;13.686;2023-08-20T12:44:55;22.10;87.40
64705;DHT22;51131;52.298;13.686;2023-08-20T12:47:22;22.30;87.50
64705;DHT22;51131;52.298;13.686;2023-08-20T12:49:49;22.00;87.30
64705;DHT22;51131;52.298;13.686;2023-08-20T12:52:15;22.10;87.40
64705;DHT22;51131;52.298;13.686;2023-08-20T12:54:42;22.10;87.50
64705;DHT22;51131;52.298;13.686;2023-08-20T12:57:09;22.10;87.50
64705;DHT22;51131;52.298;13.686;2023-08-20T12:59:36;22.10;87.50
64705;DHT22;51131;52.298;13.686;2023-08-20T13:02:02;22.10;87.60
64705;DHT22;51131;52.298;13.686;2023-08-20T13:04:29;22.00;87.40
64705;DHT22;51131;52.298;13.686;2023-08-20T13:06:56;22.10;87.50
64705;DHT22;51131;52.298;13.686;2023-08-20T13:09:23;22.10;87.50
64705;DHT22;51131;52.298;13.686;2023-08-20T13:11:50;22.10;87.50
64705;DHT22;51131;52.298;13.686;2023-08-20T13:14:19;22.10;87.40
64705;DHT22;51131;52.298;13.686;2023-08-20T13:16:45;22.00;87.40
64705;DHT22;51131;52.298;13.686;2023-08-20T13:19:12;22.00;87.50
64705;DHT22;51131;52.298;13.686;2023-08-20T13:21:39;22.00;87.40
64705;DHT22;51131;52.298;13.686;2023-08-20T13:24:06;22.10;87.40
64705;DHT22;51131;52.298;13.686;2023-08-20T13:26:33;22.10;87.40
64705;DHT22;51131;52.298;13.686;2023-08-20T13:29:00;22.10;87.50
64705;DHT22;51131;52.298;13.686;2023-08-20T13:31:27;22.00;87.40
64705;DHT22;51131;52.298;13.686;2023-08-20T13:33:54;22.10;87.40
64705;DHT22;51131;52.298;13.686;2023-08-20T13:36:20;22.00;87.40
64705;DHT22;51131;52.298;13.686;2023-08-20T13:38:47;22.10;87.40
64705;DHT22;51131;52.298;13.686;2023-08-20T13:41:13;22.10;87.50
64705;DHT22;51131;52.298;13.686;2023-08-20T13:43:40;22.00;87.30
64705;DHT22;51131;52.298;13.686;2023-08-20T13:46:07;22.00;87.30
64705;DHT22;51131;52.298;13.686;2023-08-20T13:48:34;22.10;87.50
64705;DHT22;51131;52.298;13.686;2023-08-20T13:51:01;22.10;87.30
64705;DHT22;51131;52.298;13.686;2023-08-20T13:53:27;22.10;87.30
64705;DHT22;51131;52.298;13.686;2023-08-20T13:55:54;22.10;87.30
64705;DHT22;51131;52.298;13.686;2023-08-20T13:58:22;22.10;87.40
64705;DHT22;51131;52.298;13.686;2023-08-20T14:00:48;22.40;87.60
64705;DHT22;51131;52.298;13.686;2023-08-20T14:03:15;22.10;87.30
64705;DHT22;51131;52.298;13.686;2023-08-20T14:05:42;22.00;87.20
64705;DHT22;51131;52.298;13.686;2023-08-20T14:08:08;22.00;87.20
64705;DHT22;51131;52.298;13.686;2023-08-20T14:10:35;22.10;87.20
64705;DHT22;51131;52.298;13.686;2023-08-20T14:13:01;22.00;87.10
64705;DHT22;51131;52.298;13.686;2023-08-20T14:15:29;22.00;87.10
64705;DHT22;51131;52.298;13.686;2023-08-20T14:17:56;22.00;87.10
64705;DHT22;51131;52.298;13.686;2023-08-20T14:20:22;22.00;87.20
64705;DHT22;51131;52.298;13.686;2023-08-20T14:22:49;22.50;87.70
64705;DHT22;51131;52.298;13.686;2023-08-20T14:25:16;22.20;87.40
64705;DHT22;51131;52.298;13.686;2023-08-20T14:27:42;22.10;87.20
64705;DHT22;51131;52.298;13.686;2023-08-20T14:30:09;22.00;87.00
64705;DHT22;51131;52.298;13.686;2023-08-20T14:32:37;22.10;87.20
64705;DHT22;51131;52.298;13.686;2023-08-20T14:35:07;22.10;87.00
64705;DHT22;51131;52.298;13.686;2023-08-20T14:37:33;22.00;86.90
64705;DHT22;51131;52.298;13.686;2023-08-20T14:40:00;22.10;87.10
64705;DHT22;51131;52.298;13.686;2023-08-20T14:42:27;22.00;87.10
64705;DHT22;51131;52.298;13.686;2023-08-20T14:44:54;22.00;86.90
64705;DHT22;51131;52.298;13.686;2023-08-20T14:47:21;22.20;87.10
64705;DHT22;51131;52.298;13.686;2023-08-20T14:49:48;22.10;87.00
64705;DHT22;51131;52.298;13.686;2023-08-20T14:52:14;22.00;86.90
64705;DHT22;51131;52.298;13.686;2023-08-20T14:54:59;22.10;86.90
64705;DHT22;51131;52.298;13.686;2023-08-20T14:57:26;22.00;86.70
64705;DHT22;51131;52.298;13.686;2023-08-20T15:00:06;22.10;86.80
64705;DHT22;51131;52.298;13.686;2023-08-20T15:02:34;22.10;87.40
64705;DHT22;51131;52.298;13.686;2023-08-20T15:05:01;22.20;86.80
64705;DHT22;51131;52.298;13.686;2023-08-20T15:07:28;22.00;86.60
64705;DHT22;51131;52.298;13.686;2023-08-20T15:09:55;22.10;86.80
64705;DHT22;51131;52.298;13.686;2023-08-20T15:12:22;22.40;87.00
64705;DHT22;51131;52.298;13.686;2023-08-20T15:14:48;22.10;86.80
64705;DHT22;51131;52.298;13.686;2023-08-20T15:17:15;22.00;86.80
64705;DHT22;51131;52.298;13.686;2023-08-20T15:19:42;22.00;86.80
64705;DHT22;51131;52.298;13.686;2023-08-20T15:22:08;22.00;86.80
64705;DHT22;51131;52.298;13.686;2023-08-20T15:24:35;22.00;86.90
64705;DHT22;51131;52.298;13.686;2023-08-20T15:27:01;22.00;87.00
64705;DHT22;51131;52.298;13.686;2023-08-20T15:29:29;22.00;87.00